Terminal Aerodrome Forecast
Issued by NWS Buffalo, NY

Home | Current Version | Previous Version | Text Only | Print | Product List | Glossary On
Versions: 1 2 3 4 5 6 7 8 9 10 11 12 13 14 15 16 17 18 19 20 21 22 23 24 25 26 27
000
FTUS41 KBUF 221729
TAFART
TAF
KART 221729Z 2218/2318 25011G18KT P6SM VCSH BKN050
     FM222200 28011KT P6SM SCT060
     FM230200 01006KT P6SM SCT250
     FM230500 28004KT P6SM FEW250
     FM231100 25008KT P6SM SKC
     FM231500 26012KT P6SM FEW200=

USA.gov is the U.S. government's official web portal to all federal, state and local government web resources and services.